createdAt,value
2018-06-14T00:01:56.980Z,3.77
2018-06-14T00:04:25.593Z,3.27
2018-06-14T00:06:54.200Z,3.87
2018-06-14T00:09:22.900Z,3.93
2018-06-14T00:11:51.518Z,3.30
2018-06-14T00:14:20.184Z,3.00
2018-06-14T00:16:48.860Z,3.20
2018-06-14T00:19:17.523Z,2.97
2018-06-14T00:21:46.187Z,3.37
2018-06-14T00:24:14.841Z,3.67
2018-06-14T00:26:43.489Z,3.60
2018-06-14T00:29:12.193Z,4.37
2018-06-14T00:31:40.849Z,2.97
2018-06-14T00:34:09.544Z,3.20
2018-06-14T00:36:38.335Z,3.17
2018-06-14T00:39:07.712Z,3.00
2018-06-14T00:41:36.428Z,3.60
2018-06-14T00:44:05.152Z,2.87
2018-06-14T00:46:33.771Z,3.70
2018-06-14T00:49:02.455Z,3.40
2018-06-14T00:51:31.088Z,3.10
2018-06-14T00:53:59.767Z,2.93
2018-06-14T00:56:28.527Z,3.00
2018-06-14T00:58:57.191Z,3.63
2018-06-14T01:01:25.863Z,3.80
2018-06-14T01:03:54.555Z,2.87
2018-06-14T01:06:23.284Z,3.30
2018-06-14T01:08:51.933Z,3.47
2018-06-14T01:11:20.606Z,3.00
2018-06-14T01:13:49.292Z,2.87
2018-06-14T01:16:17.950Z,2.80
2018-06-14T01:18:46.636Z,3.17
2018-06-14T01:21:15.307Z,3.57
2018-06-14T01:23:44.290Z,3.67
2018-06-14T01:26:13.043Z,3.03
2018-06-14T01:28:41.748Z,3.40
2018-06-14T01:31:10.410Z,3.30
2018-06-14T01:33:39.088Z,3.37
2018-06-14T01:36:07.739Z,3.47
2018-06-14T01:38:36.429Z,3.50
2018-06-14T01:41:05.075Z,3.00
2018-06-14T01:43:33.733Z,3.57
2018-06-14T01:46:02.376Z,3.70
2018-06-14T01:48:31.059Z,3.53
2018-06-14T01:50:59.841Z,2.83
2018-06-14T01:53:28.591Z,3.13
2018-06-14T01:55:57.253Z,3.83
2018-06-14T01:58:29.526Z,3.17
2018-06-14T02:00:59.469Z,2.70
2018-06-14T02:03:28.085Z,3.60
2018-06-14T02:05:56.732Z,3.10
2018-06-14T02:08:25.371Z,3.10
2018-06-14T02:10:55.017Z,3.10
2018-06-14T02:13:31.152Z,2.83
2018-06-14T02:15:59.779Z,3.27
2018-06-14T02:18:28.392Z,3.13
2018-06-14T02:20:57.020Z,3.13
2018-06-14T02:23:25.649Z,2.87
2018-06-14T02:25:54.328Z,3.03
2018-06-14T02:28:22.973Z,2.97
2018-06-14T02:30:51.554Z,3.27
2018-06-14T02:33:20.168Z,3.17
2018-06-14T02:35:48.835Z,2.53
2018-06-14T02:38:20.711Z,3.83
2018-06-14T02:40:49.620Z,5.07
2018-06-14T02:43:18.256Z,5.50
2018-06-14T02:45:46.939Z,5.23
2018-06-14T02:48:16.690Z,4.97
2018-06-14T02:50:45.295Z,5.63
2018-06-14T02:53:14.004Z,5.40
2018-06-14T02:55:42.601Z,4.47
2018-06-14T02:58:11.234Z,3.90
2018-06-14T03:00:39.889Z,3.30
2018-06-14T03:03:08.525Z,3.70
2018-06-14T03:05:37.130Z,4.00
2018-06-14T03:08:05.974Z,3.60
2018-06-14T03:10:34.645Z,3.93
2018-06-14T03:13:03.312Z,4.70
2018-06-14T03:15:31.965Z,4.60
2018-06-14T03:18:00.584Z,5.83
2018-06-14T03:20:29.338Z,3.97
2018-06-14T03:22:58.351Z,4.10
2018-06-14T03:25:26.996Z,5.20
2018-06-14T03:27:55.610Z,4.73
2018-06-14T03:30:24.284Z,4.53
2018-06-14T03:32:53.002Z,3.67
2018-06-14T03:35:21.986Z,3.70
2018-06-14T03:37:50.649Z,3.10
2018-06-14T03:40:19.356Z,4.37
2018-06-14T03:42:47.965Z,3.90
2018-06-14T03:45:17.422Z,3.80
2018-06-14T03:47:46.969Z,3.67
2018-06-14T03:50:15.561Z,4.23
2018-06-14T03:52:44.336Z,4.07
2018-06-14T03:55:12.941Z,3.50
2018-06-14T03:57:41.650Z,3.47
2018-06-14T04:00:10.350Z,4.93
2018-06-14T04:02:38.999Z,5.47
2018-06-14T04:05:07.663Z,4.90
2018-06-14T04:07:36.306Z,4.70
2018-06-14T04:10:05.150Z,5.20
2018-06-14T04:12:33.772Z,5.10
2018-06-14T04:15:02.391Z,4.00
2018-06-14T04:17:31.010Z,3.90
2018-06-14T04:19:59.615Z,3.93
2018-06-14T04:22:28.222Z,4.07
2018-06-14T04:24:56.848Z,3.87
2018-06-14T04:27:25.500Z,4.60
2018-06-14T04:29:54.148Z,4.20
2018-06-14T04:32:22.768Z,4.20
2018-06-14T04:34:51.377Z,4.90
2018-06-14T04:37:20.043Z,4.67
2018-06-14T04:39:48.762Z,5.10
2018-06-14T04:42:17.677Z,4.80
2018-06-14T04:44:46.298Z,4.93
2018-06-14T04:47:14.884Z,6.60
2018-06-14T04:49:43.494Z,5.50
2018-06-14T04:52:12.148Z,6.13
2018-06-14T04:54:40.795Z,5.87
2018-06-14T04:57:09.452Z,5.43
2018-06-14T04:59:38.062Z,6.30
2018-06-14T05:02:06.739Z,5.60
2018-06-14T05:04:35.375Z,6.53
2018-06-14T05:07:04.046Z,6.27
2018-06-14T05:09:32.666Z,6.17
2018-06-14T05:12:01.294Z,8.07
2018-06-14T05:14:29.947Z,8.20
2018-06-14T05:16:58.599Z,8.30
2018-06-14T05:19:27.231Z,7.87
2018-06-14T05:21:55.834Z,7.50
2018-06-14T05:24:24.456Z,7.47
2018-06-14T05:26:53.435Z,8.43
2018-06-14T05:29:22.064Z,8.13
2018-06-14T05:31:50.709Z,7.10
2018-06-14T05:34:19.331Z,8.33
2018-06-14T05:36:47.994Z,8.47
2018-06-14T05:39:16.667Z,7.77
2018-06-14T05:41:45.374Z,7.60
2018-06-14T05:44:14.076Z,8.33
2018-06-14T05:46:42.712Z,8.37
2018-06-14T05:49:11.393Z,7.50
2018-06-14T05:51:40.035Z,7.53
2018-06-14T05:54:08.665Z,7.80
2018-06-14T05:56:37.301Z,7.27
2018-06-14T05:59:05.933Z,6.57
2018-06-14T06:01:34.585Z,6.60
2018-06-14T06:04:03.293Z,6.17
2018-06-14T06:06:31.956Z,7.00
2018-06-14T06:09:00.615Z,6.50
2018-06-14T06:11:29.238Z,5.93
2018-06-14T06:13:57.838Z,6.00
2018-06-14T06:16:26.476Z,6.40
2018-06-14T06:18:55.157Z,5.43
2018-06-14T06:21:23.768Z,6.40
2018-06-14T06:23:52.380Z,5.43
2018-06-14T06:26:21.107Z,5.13
2018-06-14T06:28:49.675Z,5.00
2018-06-14T06:31:18.271Z,5.27
2018-06-14T06:33:47.041Z,4.97
2018-06-14T06:36:15.674Z,5.43
2018-06-14T06:38:44.300Z,5.50
2018-06-14T06:41:12.977Z,4.87
2018-06-14T06:43:41.642Z,4.40
2018-06-14T06:46:10.265Z,4.93
2018-06-14T06:48:38.864Z,5.03
2018-06-14T06:51:07.480Z,5.47
2018-06-14T06:53:36.125Z,5.13
2018-06-14T06:56:04.796Z,4.90
2018-06-14T06:58:33.695Z,5.80
2018-06-14T07:01:02.394Z,5.10
2018-06-14T07:03:31.008Z,5.03
2018-06-14T07:05:59.724Z,5.53
2018-06-14T07:08:28.371Z,4.93
2018-06-14T07:10:57.221Z,4.87
2018-06-14T07:13:25.818Z,5.77
2018-06-14T07:15:54.444Z,5.23
2018-06-14T07:18:23.106Z,5.60
2018-06-14T07:20:51.732Z,6.20
2018-06-14T07:23:20.420Z,5.27
2018-06-14T07:25:49.176Z,5.27
2018-06-14T07:28:17.826Z,5.63
2018-06-14T07:30:46.446Z,6.17
2018-06-14T07:33:15.044Z,5.80
2018-06-14T07:35:43.824Z,4.33
2018-06-14T07:38:12.712Z,5.10
2018-06-14T07:40:41.326Z,4.77
2018-06-14T07:43:10.059Z,6.07
2018-06-14T07:45:38.676Z,5.43
2018-06-14T07:48:07.354Z,5.10
2018-06-14T07:50:35.984Z,5.30
2018-06-14T07:53:04.626Z,5.63
2018-06-14T07:55:33.253Z,5.73
2018-06-14T07:58:01.937Z,5.73
2018-06-14T08:00:30.586Z,5.53
2018-06-14T08:02:59.207Z,5.70
2018-06-14T08:05:27.870Z,5.50
2018-06-14T08:07:56.490Z,5.17
2018-06-14T08:10:25.228Z,5.77
2018-06-14T08:12:53.931Z,5.30
2018-06-14T08:15:22.572Z,6.07
2018-06-14T08:17:51.510Z,5.93
2018-06-14T08:20:20.181Z,5.47
2018-06-14T08:22:48.851Z,5.10
2018-06-14T08:25:17.509Z,5.67
2018-06-14T08:27:46.122Z,5.10
2018-06-14T08:30:14.764Z,5.50
2018-06-14T08:32:43.413Z,4.70
2018-06-14T08:35:12.062Z,4.87
2018-06-14T08:37:40.801Z,5.67
2018-06-14T08:40:09.793Z,6.17
2018-06-14T08:42:38.437Z,5.53
2018-06-14T08:45:07.090Z,4.07
2018-06-14T08:47:35.728Z,5.90
2018-06-14T08:50:04.605Z,5.07
2018-06-14T08:52:33.269Z,4.20
2018-06-14T08:55:02.122Z,4.17
2018-06-14T08:57:30.781Z,4.70
2018-06-14T08:59:59.438Z,4.27
2018-06-14T09:02:28.079Z,4.23
2018-06-14T09:04:56.741Z,3.80
2018-06-14T09:07:25.408Z,4.20
2018-06-14T09:09:54.076Z,4.37
2018-06-14T09:12:22.756Z,4.40
2018-06-14T09:14:51.416Z,3.70
2018-06-14T09:17:20.042Z,4.10
2018-06-14T09:19:48.697Z,3.50
2018-06-14T09:22:17.499Z,4.40
2018-06-14T09:24:46.146Z,4.23
2018-06-14T09:27:14.791Z,4.20
2018-06-14T09:29:43.455Z,3.80
2018-06-14T09:32:12.077Z,4.43
2018-06-14T09:34:40.915Z,3.67
2018-06-14T09:37:09.589Z,4.63
2018-06-14T09:39:38.265Z,4.37
2018-06-14T09:42:06.987Z,3.47
2018-06-14T09:44:35.609Z,4.30
2018-06-14T09:47:04.395Z,3.10
2018-06-14T09:49:33.040Z,4.47
2018-06-14T09:52:01.681Z,4.20
2018-06-14T09:54:30.329Z,3.73
2018-06-14T09:56:58.971Z,3.67
2018-06-14T09:59:27.694Z,4.00
2018-06-14T10:01:56.377Z,3.73
2018-06-14T10:04:25.042Z,4.10
2018-06-14T10:06:53.693Z,4.33
2018-06-14T10:09:22.343Z,4.20
2018-06-14T10:11:50.984Z,4.17
2018-06-14T10:14:19.618Z,3.70
2018-06-14T10:16:48.289Z,4.33
2018-06-14T10:19:16.959Z,3.83
2018-06-14T10:21:45.724Z,4.50
2018-06-14T10:24:14.437Z,4.70
2018-06-14T10:26:43.942Z,4.40
2018-06-14T10:29:12.686Z,4.00
2018-06-14T10:31:41.321Z,4.57
2018-06-14T10:34:09.957Z,4.50
2018-06-14T10:36:38.581Z,4.20
2018-06-14T10:39:08.015Z,3.97
2018-06-14T10:41:36.708Z,3.70
2018-06-14T10:44:05.313Z,4.23
2018-06-14T10:46:34.011Z,4.53
2018-06-14T10:49:02.689Z,4.00
2018-06-14T10:51:31.370Z,4.20
2018-06-14T10:53:59.985Z,3.83
2018-06-14T10:56:28.617Z,3.37
2018-06-14T10:58:57.242Z,4.20
2018-06-14T11:01:25.878Z,5.63
2018-06-14T11:03:54.518Z,4.40
2018-06-14T11:06:23.179Z,4.20
2018-06-14T11:08:51.790Z,3.43
2018-06-14T11:11:20.456Z,4.30
2018-06-14T11:13:49.116Z,3.23
2018-06-14T11:16:17.717Z,2.80
2018-06-14T11:18:46.346Z,2.70
2018-06-14T11:21:14.981Z,3.30
2018-06-14T11:23:43.601Z,3.03
2018-06-14T11:26:12.321Z,3.07
2018-06-14T11:28:40.985Z,3.03
2018-06-14T11:31:09.694Z,3.13
2018-06-14T11:33:38.325Z,2.93
2018-06-14T11:36:06.989Z,3.23
2018-06-14T11:38:35.675Z,3.03
2018-06-14T11:41:04.352Z,3.07
2018-06-14T11:43:33.363Z,2.70
2018-06-14T11:46:02.020Z,3.00
2018-06-14T11:48:30.707Z,2.90
2018-06-14T11:50:59.362Z,2.80
2018-06-14T11:53:28.016Z,3.13
2018-06-14T11:55:56.765Z,3.20
2018-06-14T11:58:25.482Z,2.93
2018-06-14T12:00:54.176Z,2.83
2018-06-14T12:03:22.907Z,3.30
2018-06-14T12:05:51.783Z,2.73
2018-06-14T12:08:20.540Z,2.60
2018-06-14T12:10:49.186Z,3.23
2018-06-14T12:13:17.878Z,2.43
2018-06-14T12:15:46.541Z,3.60
2018-06-14T12:18:15.202Z,3.37
2018-06-14T12:20:43.862Z,2.97
2018-06-14T12:23:12.495Z,3.03
2018-06-14T12:25:41.346Z,2.77
2018-06-14T12:28:10.126Z,3.17
2018-06-14T12:30:38.769Z,3.63
2018-06-14T12:33:07.435Z,2.90
2018-06-14T12:35:36.110Z,3.00
2018-06-14T12:38:04.818Z,3.00
2018-06-14T12:40:33.533Z,3.03
2018-06-14T12:43:02.176Z,2.77
2018-06-14T12:45:30.834Z,2.40
2018-06-14T12:47:59.493Z,3.10
2018-06-14T12:50:28.167Z,3.30
2018-06-14T12:52:56.826Z,2.50
2018-06-14T12:55:25.486Z,2.70
2018-06-14T12:57:54.155Z,3.20
2018-06-14T13:00:22.810Z,3.40
2018-06-14T13:02:51.413Z,3.23
2018-06-14T13:05:20.078Z,3.57
2018-06-14T13:07:48.715Z,2.97
2018-06-14T13:10:17.379Z,3.03
2018-06-14T13:12:46.028Z,3.67
2018-06-14T13:15:14.714Z,3.20
2018-06-14T13:17:43.398Z,3.67
2018-06-14T13:20:12.064Z,3.40
2018-06-14T13:22:40.744Z,3.20
2018-06-14T13:25:09.437Z,3.73
2018-06-14T13:27:38.088Z,3.43
2018-06-14T13:30:06.786Z,3.70
2018-06-14T13:32:35.457Z,3.60
2018-06-14T13:35:04.131Z,3.37
2018-06-14T13:37:32.930Z,3.60
2018-06-14T13:40:01.564Z,3.40
2018-06-14T13:42:31.629Z,3.87
2018-06-14T13:45:00.277Z,3.33
2018-06-14T13:47:28.863Z,3.87
2018-06-14T13:49:57.527Z,3.50
2018-06-14T13:52:29.423Z,3.83
2018-06-14T13:54:58.061Z,3.23
2018-06-14T13:57:26.693Z,3.60
2018-06-14T13:59:55.367Z,3.90
2018-06-14T14:02:24.016Z,3.50
2018-06-14T14:04:52.643Z,3.33
2018-06-14T14:07:28.209Z,3.33
2018-06-14T14:09:57.544Z,3.20
2018-06-14T14:12:26.895Z,3.37
2018-06-14T14:14:55.855Z,3.90
2018-06-14T14:17:24.531Z,3.40
2018-06-14T14:19:53.256Z,2.80
2018-06-14T14:22:21.912Z,2.90
2018-06-14T14:24:50.538Z,3.40
2018-06-14T14:27:19.196Z,3.87
2018-06-14T14:29:47.822Z,3.50
2018-06-14T14:32:16.524Z,3.93
2018-06-14T14:34:45.133Z,4.00
2018-06-14T14:37:13.760Z,3.80
2018-06-14T14:39:42.376Z,3.70
2018-06-14T14:42:11.013Z,4.07
2018-06-14T14:44:39.861Z,3.80
2018-06-14T14:47:08.468Z,4.27
2018-06-14T14:49:37.069Z,5.13
2018-06-14T14:52:05.693Z,4.23
2018-06-14T14:54:34.312Z,4.17
2018-06-14T14:57:02.940Z,4.80
2018-06-14T14:59:31.605Z,5.20
2018-06-14T15:02:00.185Z,5.23
2018-06-14T15:04:28.897Z,5.93
2018-06-14T15:06:57.507Z,4.97
2018-06-14T15:09:26.083Z,5.47
2018-06-14T15:11:54.702Z,5.80
2018-06-14T15:14:23.384Z,5.50
2018-06-14T15:16:51.981Z,5.70
2018-06-14T15:19:20.629Z,6.00
2018-06-14T15:21:49.237Z,5.07
2018-06-14T15:24:17.838Z,6.77
2018-06-14T15:26:46.434Z,6.67
2018-06-14T15:29:15.099Z,6.53
2018-06-14T15:31:44.083Z,6.60
2018-06-14T15:34:12.705Z,6.53
2018-06-14T15:36:41.434Z,6.27
2018-06-14T15:39:10.437Z,6.60
2018-06-14T15:41:39.166Z,6.17
2018-06-14T15:44:07.790Z,6.93
2018-06-14T15:46:36.414Z,7.43
2018-06-14T15:49:05.057Z,5.70
2018-06-14T15:51:33.697Z,6.07
2018-06-14T15:54:02.361Z,6.97
2018-06-14T15:56:41.609Z,6.40
2018-06-14T15:59:11.422Z,5.90
2018-06-14T16:01:40.084Z,6.83
2018-06-14T16:04:22.477Z,6.90
2018-06-14T16:06:51.105Z,6.93
2018-06-14T16:09:19.697Z,7.40
2018-06-14T16:11:48.327Z,6.80
2018-06-14T16:14:16.937Z,7.10
2018-06-14T16:16:45.550Z,7.30
2018-06-14T16:19:14.209Z,6.63
2018-06-14T16:21:42.835Z,7.40
2018-06-14T16:24:11.476Z,7.70
2018-06-14T16:26:40.124Z,6.63
2018-06-14T16:29:08.768Z,8.30
2018-06-14T16:31:37.476Z,8.00
2018-06-14T16:34:06.148Z,7.70
2018-06-14T16:36:34.786Z,8.43
2018-06-14T16:39:04.138Z,8.30
2018-06-14T16:41:32.777Z,8.70
2018-06-14T16:44:01.448Z,8.10
2018-06-14T16:46:30.134Z,9.27
2018-06-14T16:48:58.822Z,9.73
2018-06-14T16:51:27.590Z,9.10
2018-06-14T16:53:56.235Z,9.23
2018-06-14T16:56:24.915Z,9.80
2018-06-14T16:58:53.754Z,9.13
2018-06-14T17:01:22.397Z,9.17
2018-06-14T17:03:51.054Z,7.60
2018-06-14T17:06:19.772Z,8.77
2018-06-14T17:08:48.428Z,8.77
2018-06-14T17:11:17.057Z,9.20
2018-06-14T17:13:45.687Z,9.17
2018-06-14T17:16:14.335Z,8.53
2018-06-14T17:18:42.980Z,9.00
2018-06-14T17:21:11.688Z,9.50
2018-06-14T17:23:40.357Z,9.80
2018-06-14T17:26:09.125Z,9.60
2018-06-14T17:28:37.804Z,9.73
2018-06-14T17:31:06.568Z,9.53
2018-06-14T17:33:40.404Z,10.13
2018-06-14T17:36:09.112Z,9.60
2018-06-14T17:38:37.802Z,9.10
2018-06-14T17:41:06.571Z,9.43
2018-06-14T17:43:35.191Z,8.10
2018-06-14T17:46:03.924Z,8.83
2018-06-14T17:48:32.595Z,8.00
2018-06-14T17:51:01.253Z,8.70
2018-06-14T17:53:29.972Z,8.87
2018-06-14T17:55:58.712Z,8.63
2018-06-14T17:58:27.381Z,9.27
2018-06-14T18:00:56.060Z,9.37
2018-06-14T18:03:24.703Z,8.53
2018-06-14T18:05:53.440Z,10.00
2018-06-14T18:08:22.169Z,8.67
2018-06-14T18:10:50.792Z,9.73
2018-06-14T18:13:19.493Z,9.90
2018-06-14T18:15:49.164Z,9.13
2018-06-14T18:18:17.820Z,9.47
2018-06-14T18:20:46.540Z,9.90
2018-06-14T18:23:15.206Z,9.97
2018-06-14T18:25:44.040Z,10.37
2018-06-14T18:28:12.701Z,11.13
2018-06-14T18:30:41.430Z,11.10
2018-06-14T18:33:10.240Z,10.97
2018-06-14T18:35:38.888Z,11.10
2018-06-14T18:38:07.728Z,10.73
2018-06-14T18:40:36.482Z,10.87
2018-06-14T18:43:05.225Z,10.20
2018-06-14T18:45:34.012Z,10.17
2018-06-14T18:48:02.685Z,11.00
2018-06-14T18:50:31.396Z,9.53
2018-06-14T18:53:00.050Z,11.10
2018-06-14T18:55:28.748Z,10.20
2018-06-14T18:57:57.795Z,11.40
2018-06-14T19:00:26.561Z,10.43
2018-06-14T19:02:55.297Z,10.43
2018-06-14T19:05:23.949Z,10.73
2018-06-14T19:07:52.603Z,10.37
2018-06-14T19:10:21.251Z,11.40
2018-06-14T19:12:49.873Z,10.70
2018-06-14T19:15:18.572Z,9.37
2018-06-14T19:17:47.241Z,8.57
2018-06-14T19:20:16.069Z,9.50
2018-06-14T19:22:44.756Z,9.87
2018-06-14T19:25:13.512Z,10.17
2018-06-14T19:27:42.208Z,9.67
2018-06-14T19:30:10.933Z,9.90
2018-06-14T19:32:39.640Z,8.93
2018-06-14T19:35:08.296Z,10.00
2018-06-14T19:37:36.944Z,9.80
2018-06-14T19:40:05.734Z,10.27
2018-06-14T19:42:34.405Z,10.20
2018-06-14T19:45:03.126Z,11.33
2018-06-14T19:47:31.760Z,12.90
2018-06-14T19:50:00.402Z,12.63
2018-06-14T19:52:29.971Z,11.90
2018-06-14T19:57:51.030Z,13.30
2018-06-14T20:00:19.840Z,11.90
2018-06-14T20:02:48.512Z,12.70
2018-06-14T20:05:17.178Z,13.30
2018-06-14T20:07:45.935Z,13.37
2018-06-14T20:10:14.643Z,13.13
2018-06-14T20:12:43.420Z,11.30
2018-06-14T20:15:12.142Z,12.50
2018-06-14T20:17:40.890Z,14.47
2018-06-14T20:20:10.435Z,12.47
2018-06-14T20:22:39.139Z,13.90
2018-06-14T20:25:07.962Z,12.53
2018-06-14T20:27:36.618Z,11.57
2018-06-14T20:30:05.399Z,10.90
2018-06-14T20:32:34.143Z,11.23
2018-06-14T20:35:02.775Z,11.40
2018-06-14T20:37:31.441Z,11.20
2018-06-14T20:40:00.051Z,11.77
2018-06-14T20:42:28.737Z,12.10
2018-06-14T20:44:57.409Z,11.87
2018-06-14T20:47:26.052Z,11.47
2018-06-14T20:49:54.727Z,12.30
2018-06-14T20:52:23.332Z,11.17
2018-06-14T20:54:51.981Z,11.80
2018-06-14T20:57:20.654Z,12.70
2018-06-14T20:59:49.270Z,12.37
2018-06-14T21:02:17.902Z,12.17
2018-06-14T21:04:46.508Z,13.17
2018-06-14T21:07:15.123Z,12.67
2018-06-14T21:09:43.838Z,12.80
2018-06-14T21:12:12.453Z,12.73
2018-06-14T21:14:41.080Z,13.33
2018-06-14T21:17:09.758Z,13.13
2018-06-14T21:19:38.330Z,12.93
2018-06-14T21:22:06.977Z,14.20
2018-06-14T21:24:35.576Z,14.27
2018-06-14T21:27:04.217Z,13.70
2018-06-14T21:29:32.838Z,13.40
2018-06-14T21:32:01.445Z,13.87
2018-06-14T21:34:30.072Z,13.83
2018-06-14T21:36:58.708Z,12.73
2018-06-14T21:39:27.393Z,13.93
2018-06-14T21:41:55.994Z,14.20
2018-06-14T21:44:24.608Z,12.97
2018-06-14T21:46:53.279Z,13.43
2018-06-14T21:49:21.880Z,13.60
2018-06-14T21:51:50.508Z,12.50
2018-06-14T21:54:19.138Z,13.50
2018-06-14T21:56:47.727Z,14.37
2018-06-14T21:59:16.360Z,14.43
2018-06-14T22:01:44.953Z,13.77
2018-06-14T22:04:13.596Z,13.67
2018-06-14T22:06:42.181Z,13.20
2018-06-14T22:09:10.792Z,13.73
2018-06-14T22:11:39.388Z,12.47
2018-06-14T22:14:08.008Z,13.60
2018-06-14T22:16:36.640Z,13.73
2018-06-14T22:19:05.698Z,12.50
2018-06-14T22:21:34.343Z,14.23
2018-06-14T22:24:02.960Z,13.80
2018-06-14T22:26:31.537Z,12.10
2018-06-14T22:29:00.148Z,14.87
2018-06-14T22:31:28.774Z,15.20
2018-06-14T22:34:08.376Z,14.93
2018-06-14T22:36:36.956Z,14.73
2018-06-14T22:39:06.708Z,14.67
2018-06-14T22:41:35.432Z,14.43
2018-06-14T22:44:04.117Z,12.43
2018-06-14T22:46:32.745Z,15.60
2018-06-14T22:49:01.361Z,14.23
2018-06-14T22:53:42.576Z,14.27
2018-06-14T22:56:11.221Z,11.90
2018-06-14T22:58:39.872Z,12.27
2018-06-14T23:01:28.476Z,12.63
2018-06-14T23:03:57.890Z,10.93
2018-06-14T23:06:26.547Z,12.27
2018-06-14T23:08:55.188Z,12.30
2018-06-14T23:11:24.376Z,11.73
2018-06-14T23:13:53.321Z,11.43
2018-06-14T23:16:22.314Z,10.93
2018-06-14T23:18:51.127Z,12.40
2018-06-14T23:21:19.763Z,15.23
2018-06-14T23:23:48.383Z,11.93
2018-06-14T23:26:17.029Z,14.07
2018-06-14T23:28:45.640Z,15.03
2018-06-14T23:31:14.298Z,14.47
2018-06-14T23:33:42.882Z,13.40
2018-06-14T23:36:11.457Z,15.83
2018-06-14T23:38:40.103Z,13.57
2018-06-14T23:41:08.712Z,13.07
2018-06-14T23:43:37.333Z,13.53
2018-06-14T23:46:05.985Z,15.87
2018-06-14T23:48:34.576Z,14.23
2018-06-14T23:51:03.199Z,15.87
2018-06-14T23:53:31.798Z,15.70
2018-06-14T23:56:00.421Z,15.93
2018-06-14T23:58:29.012Z,14.97
